Nautilus — OUYX2 — position and weather

sailwx.info

Track history (hours):
 
Tides and Currents Weather Stations Pressure Air Temp Water Temp Dewpoint Dewpoint Depression Visibility Wind Speed Wind Dir Waves Ship Positions

Nautilus

Last reported at 2017-Nov-24 04:00 UTC. Time now 2017-Nov-24 04:10 UTC.
Position N 67°49' E 014°18'.

Length 120 m; draft 7.6 m.

Type: Ship. MMSI: 219425000.

Date/timePositionNaut miles runAvg speedWind from/ knotsBaromVisibWave heightAir tempDewpointWater temp
2017-Nov-24 04:00N 67°49' E 014°18'4 8.9
2017-Nov-24 03:30N 67°46' E 014°10'4 8.1
2017-Nov-24 03:00N 67°43' E 014°03'4 8.5
2017-Nov-24 02:30N 67°40' E 013°57'4 7.9
2017-Nov-24 02:00N 67°37' E 013°50'4 7.1
2017-Nov-24 01:30N 67°34' E 013°43'4 7.2
2017-Nov-24 00:59N 67°31' E 013°37'4 7.7
2017-Nov-24 00:30N 67°28' E 013°31'4 7.8
2017-Nov-24 00:00N 67°25' E 013°24'4 8.2
2017-Nov-23 23:30N 67°22' E 013°18'4 8.3
2017-Nov-23 23:00N 67°19' E 013°10'4 8.1
2017-Nov-23 22:30N 67°16' E 013°03'4 8.4
2017-Nov-23 22:00N 67°13' E 012°56'45 9.8
2017-Nov-23 17:24N 66°36' E 011°51'410.1
2017-Nov-23 16:59N 66°32' E 011°45'510.2
2017-Nov-23 16:30N 66°28' E 011°40'5 9.6
2017-Nov-23 15:58N 66°23' E 011°35'16710.3
2017-Nov-22 23:43N 63°59' E 008°15'210.8
2017-Nov-22 23:30N 63°57' E 008°12'611.0
2017-Nov-22 23:00N 63°53' E 008°03'611.2
2017-Nov-22 22:30N 63°48' E 007°55'611.8
2017-Nov-22 22:00N 63°44' E 007°48'612.0
2017-Nov-22 21:29N 63°39' E 007°40'511.1
2017-Nov-22 21:00N 63°34' E 007°32'510.8
2017-Nov-22 20:30N 63°30' E 007°25'611.1
2017-Nov-22 20:00N 63°26' E 007°17'611.5
2017-Nov-22 19:30N 63°21' E 007°09'  
2017-Nov-19 22:50N 56°16' E 012°10'413.2
2017-Nov-19 22:30N 56°14' E 012°17'612.9
2017-Nov-19 22:00N 56°10' E 012°26'612.1
2017-Nov-19 21:30N 56°06' E 012°34'611.2
2017-Nov-19 21:00N 56°02' E 012°40'511.0
2017-Nov-19 20:30N 55°56' E 012°43'611.1
2017-Nov-19 20:00N 55°51' E 012°44'612.0
2017-Nov-19 19:30N 55°45' E 012°42'611.4
2017-Nov-19 19:00N 55°39' E 012°42'510.4
2017-Nov-19 18:30N 55°34' E 012°42'611.0
2017-Nov-19 18:00N 55°29' E 012°42'611.3
2017-Nov-19 17:30N 55°23' E 012°41'510.0
2017-Nov-19 17:00N 55°18' E 012°43'610.9
2017-Nov-19 16:30N 55°16' E 012°52'511.1
2017-Nov-19 16:00N 55°16' E 013°01'611.0
2017-Nov-19 15:30N 55°15' E 013°11'510.9
2017-Nov-19 15:00N 55°15' E 013°21'1711.1
2017-Nov-19 13:30N 55°15' E 013°50'611.1
2017-Nov-19 13:00N 55°14' E 013°60'611.2
2017-Nov-19 12:28N 55°14' E 014°10'510.5
2017-Nov-19 12:00N 55°15' E 014°18'612.4
2017-Nov-19 11:30N 55°20' E 014°25'612.5
2017-Nov-19 11:00N 55°25' E 014°32'611.9
2017-Nov-19 10:29N 55°29' E 014°40'611.9
2017-Nov-19 09:59N 55°32' E 014°50'1012.0
2017-Nov-19 09:10N 55°36' E 015°05'211.6
2017-Nov-19 08:58N 55°38' E 015°08'511.6
2017-Nov-19 08:30N 55°40' E 015°17'611.5
2017-Nov-19 08:00N 55°43' E 015°26'611.5
2017-Nov-19 07:30N 55°46' E 015°35'611.7
2017-Nov-19 07:00N 55°48' E 015°44'611.2
2017-Nov-19 06:30N 55°52' E 015°51'611.4
2017-Nov-19 06:00N 55°57' E 015°56'611.2
2017-Nov-19 05:30N 56°02' E 016°00'611.7
2017-Nov-19 05:00N 56°08' E 016°04'612.4
2017-Nov-19 04:30N 56°13' E 016°08'612.5
2017-Nov-19 04:00N 56°19' E 016°12'612.5
2017-Nov-19 03:30N 56°25' E 016°15'612.4
2017-Nov-19 03:00N 56°31' E 016°18'612.2
2017-Nov-19 02:30N 56°37' E 016°21'2 0.2
2017-Nov-18 12:37N 56°39' E 016°22'1 4.6
2017-Nov-18 12:30N 56°39' E 016°22'4 8.8
2017-Nov-18 12:00N 56°35' E 016°19'612.3
2017-Nov-18 11:30N 56°29' E 016°17'612.3
2017-Nov-18 11:00N 56°23' E 016°14'612.5
2017-Nov-18 10:30N 56°17' E 016°11'713.2
2017-Nov-18 10:00N 56°11' E 016°07'713.7
2017-Nov-18 09:30N 56°04' E 016°02'713.8
2017-Nov-18 09:01N 55°58' E 015°58'713.6
2017-Nov-18 08:30N 55°51' E 015°54'713.3
2017-Nov-18 08:00N 55°46' E 015°47'713.6
2017-Nov-18 07:30N 55°42' E 015°37'713.6
2017-Nov-18 07:00N 55°39' E 015°26'713.6
2017-Nov-18 06:30N 55°36' E 015°16'713.5
2017-Nov-18 06:00N 55°33' E 015°05'1013.8
2017-Nov-18 05:18N 55°28' E 014°50'413.7
2017-Nov-18 04:59N 55°26' E 014°43'613.5
2017-Nov-18 04:30N 55°22' E 014°35'713.9
2017-Nov-18 03:59N 55°16' E 014°28'713.8
2017-Nov-18 03:30N 55°11' E 014°20'713.6
2017-Nov-18 03:00N 55°10' E 014°08'2413.7
2017-Nov-18 01:15N 55°12' E 013°26'413.5
2017-Nov-18 01:00N 55°12' E 013°20'913.7
2017-Nov-18 00:22N 55°13' E 013°05'513.5
2017-Nov-18 00:00N 55°13' E 012°56'713.7
2017-Nov-17 23:30N 55°16' E 012°45'611.1
2017-Nov-17 23:00N 55°20' E 012°38'612.1
2017-Nov-17 22:30N 55°26' E 012°40'612.4
2017-Nov-17 22:00N 55°32' E 012°42'5 9.6
2017-Nov-17 21:30N 55°37' E 012°42'612.2
2017-Nov-17 21:00N 55°43' E 012°41'612.8
2017-Nov-17 20:31N 55°49' E 012°41'612.9
2017-Nov-17 20:00N 55°55' E 012°38'713.1
2017-Nov-17 19:31N 56°02' E 012°39'714.0
2017-Nov-17 19:00N 56°07' E 012°31'713.7
2017-Nov-17 18:31N 56°11' E 012°20'  
2017-Nov-15 09:44N 56°11' E 012°03'611.7
2017-Nov-15 09:12N 56°12' E 012°13'212.1
2017-Nov-15 09:00N 56°12' E 012°18'612.2
2017-Nov-15 08:30N 56°09' E 012°28'713.5
2017-Nov-15 08:00N 56°05' E 012°37'612.9
2017-Nov-15 07:31N 55°59' E 012°42'612.6
2017-Nov-15 07:01N 55°53' E 012°45'612.0
2017-Nov-15 06:31N 55°47' E 012°48'612.3
2017-Nov-15 06:01N 55°42' E 012°54'5 9.8
2017-Nov-15 05:31N 55°39' E 013°01'1 1.2
2017-Nov-15 05:00N 55°38' E 013°01'0 0.0
2017-Nov-15 04:30N 55°38' E 013°01'0 0.0
2017-Nov-15 04:00N 55°38' E 013°01'0 0.0
2017-Nov-15 03:30N 55°38' E 013°01'0 0.0
2017-Nov-15 03:00N 55°38' E 013°01'0 0.0
2017-Nov-15 02:30N 55°38' E 013°01'0 0.0
2017-Nov-15 02:00N 55°38' E 013°01'0 0.0
2017-Nov-15 01:30N 55°38' E 013°01'0 0.0
2017-Nov-15 01:00N 55°38' E 013°01'0 0.0
2017-Nov-15 00:30N 55°38' E 013°01'0 0.0
2017-Nov-15 00:00N 55°38' E 013°01'0 0.0
2017-Nov-14 23:30N 55°38' E 013°01'0 0.0
2017-Nov-14 23:00N 55°38' E 013°01'0 0.0
2017-Nov-14 22:27N 55°38' E 013°01'0 0.0
2017-Nov-14 22:00N 55°38' E 013°01'0 0.0
2017-Nov-14 21:27N 55°38' E 013°01'0 0.0
2017-Nov-14 20:58N 55°38' E 013°01'0 0.0
2017-Nov-14 20:28N 55°38' E 013°01'0 0.0
2017-Nov-14 19:58N 55°38' E 013°01'0 0.0
2017-Nov-14 19:25N 55°38' E 013°01'0 0.0
2017-Nov-14 18:55N 55°38' E 013°01'1 2.2
2017-Nov-14 18:30N 55°39' E 013°00'4 7.8
2017-Nov-14 18:00N 55°42' E 012°55'0 0.1
2017-Nov-14 17:29N 55°42' E 012°55'0 0.0
2017-Nov-14 16:59N 55°42' E 012°55'0 0.0
2017-Nov-14 16:29N 55°42' E 012°55'0 0.0
2017-Nov-14 15:59N 55°42' E 012°55'0 0.0
2017-Nov-14 15:29N 55°42' E 012°55'0 0.0
2017-Nov-14 14:59N 55°42' E 012°55'0 0.0
2017-Nov-14 14:29N 55°42' E 012°55'0 0.0
2017-Nov-14 13:59N 55°42' E 012°55'0 0.0
2017-Nov-14 13:29N 55°42' E 012°55'0 0.1
2017-Nov-14 12:59N 55°42' E 012°55'0 0.0
2017-Nov-14 12:29N 55°42' E 012°55'0 0.0
2017-Nov-14 11:59N 55°42' E 012°55'0 0.0
2017-Nov-14 11:29N 55°42' E 012°55'0 0.0
2017-Nov-14 10:59N 55°42' E 012°55'0 0.6
2017-Nov-14 10:30N 55°42' E 012°55'5 9.6
2017-Nov-14 10:00N 55°46' E 012°50'510.2
2017-Nov-14 09:30N 55°50' E 012°44'510.2
2017-Nov-14 09:00N 55°54' E 012°39'5 9.4
2017-Nov-14 08:31N 55°59' E 012°40'510.0
2017-Nov-14 08:00N 56°04' E 012°38'510.3
2017-Nov-14 07:30N 56°07' E 012°31'510.8
2017-Nov-14 07:00N 56°10' E 012°23'611.1
2017-Nov-14 06:30N 56°12' E 012°14'  
Track history (hours):
 
Tides and Currents Weather Stations Pressure Air Temp Water Temp Dewpoint Dewpoint Depression Visibility Wind Speed Wind Dir Waves Ship Positions

Nautilus

Last reported at 2017-Nov-24 04:00 UTC. Time now 2017-Nov-24 04:10 UTC.
Position N 67°49' E 014°18'.

Length 120 m; draft 7.6 m.

Type: Ship. MMSI: 219425000.

Date/timePositionNaut miles runAvg speedWind from/ knotsBaromVisibWave heightAir tempDewpointWater temp
2017-Nov-24 04:00N 67°49' E 014°18'4 8.9
2017-Nov-24 03:30N 67°46' E 014°10'4 8.1
2017-Nov-24 03:00N 67°43' E 014°03'4 8.5
2017-Nov-24 02:30N 67°40' E 013°57'4 7.9
2017-Nov-24 02:00N 67°37' E 013°50'4 7.1
2017-Nov-24 01:30N 67°34' E 013°43'4 7.2
2017-Nov-24 00:59N 67°31' E 013°37'4 7.7
2017-Nov-24 00:30N 67°28' E 013°31'4 7.8
2017-Nov-24 00:00N 67°25' E 013°24'4 8.2
2017-Nov-23 23:30N 67°22' E 013°18'4 8.3
2017-Nov-23 23:00N 67°19' E 013°10'4 8.1
2017-Nov-23 22:30N 67°16' E 013°03'4 8.4
2017-Nov-23 22:00N 67°13' E 012°56'45 9.8
2017-Nov-23 17:24N 66°36' E 011°51'410.1
2017-Nov-23 16:59N 66°32' E 011°45'510.2
2017-Nov-23 16:30N 66°28' E 011°40'5 9.6
2017-Nov-23 15:58N 66°23' E 011°35'16710.3
2017-Nov-22 23:43N 63°59' E 008°15'210.8
2017-Nov-22 23:30N 63°57' E 008°12'611.0
2017-Nov-22 23:00N 63°53' E 008°03'611.2
2017-Nov-22 22:30N 63°48' E 007°55'611.8
2017-Nov-22 22:00N 63°44' E 007°48'612.0
2017-Nov-22 21:29N 63°39' E 007°40'511.1
2017-Nov-22 21:00N 63°34' E 007°32'510.8
2017-Nov-22 20:30N 63°30' E 007°25'611.1
2017-Nov-22 20:00N 63°26' E 007°17'611.5
2017-Nov-22 19:30N 63°21' E 007°09'  
2017-Nov-19 22:50N 56°16' E 012°10'413.2
2017-Nov-19 22:30N 56°14' E 012°17'612.9
2017-Nov-19 22:00N 56°10' E 012°26'612.1
2017-Nov-19 21:30N 56°06' E 012°34'611.2
2017-Nov-19 21:00N 56°02' E 012°40'511.0
2017-Nov-19 20:30N 55°56' E 012°43'611.1
2017-Nov-19 20:00N 55°51' E 012°44'612.0
2017-Nov-19 19:30N 55°45' E 012°42'611.4
2017-Nov-19 19:00N 55°39' E 012°42'510.4
2017-Nov-19 18:30N 55°34' E 012°42'611.0
2017-Nov-19 18:00N 55°29' E 012°42'611.3
2017-Nov-19 17:30N 55°23' E 012°41'510.0
2017-Nov-19 17:00N 55°18' E 012°43'610.9
2017-Nov-19 16:30N 55°16' E 012°52'511.1
2017-Nov-19 16:00N 55°16' E 013°01'611.0
2017-Nov-19 15:30N 55°15' E 013°11'510.9
2017-Nov-19 15:00N 55°15' E 013°21'1711.1
2017-Nov-19 13:30N 55°15' E 013°50'611.1
2017-Nov-19 13:00N 55°14' E 013°60'611.2
2017-Nov-19 12:28N 55°14' E 014°10'510.5
2017-Nov-19 12:00N 55°15' E 014°18'612.4
2017-Nov-19 11:30N 55°20' E 014°25'612.5
2017-Nov-19 11:00N 55°25' E 014°32'611.9
2017-Nov-19 10:29N 55°29' E 014°40'611.9
2017-Nov-19 09:59N 55°32' E 014°50'1012.0
2017-Nov-19 09:10N 55°36' E 015°05'211.6
2017-Nov-19 08:58N 55°38' E 015°08'511.6
2017-Nov-19 08:30N 55°40' E 015°17'611.5
2017-Nov-19 08:00N 55°43' E 015°26'611.5
2017-Nov-19 07:30N 55°46' E 015°35'611.7
2017-Nov-19 07:00N 55°48' E 015°44'611.2
2017-Nov-19 06:30N 55°52' E 015°51'611.4
2017-Nov-19 06:00N 55°57' E 015°56'611.2
2017-Nov-19 05:30N 56°02' E 016°00'611.7
2017-Nov-19 05:00N 56°08' E 016°04'612.4
2017-Nov-19 04:30N 56°13' E 016°08'612.5
2017-Nov-19 04:00N 56°19' E 016°12'612.5
2017-Nov-19 03:30N 56°25' E 016°15'612.4
2017-Nov-19 03:00N 56°31' E 016°18'612.2
2017-Nov-19 02:30N 56°37' E 016°21'2 0.2
2017-Nov-18 12:37N 56°39' E 016°22'1 4.6
2017-Nov-18 12:30N 56°39' E 016°22'4 8.8
2017-Nov-18 12:00N 56°35' E 016°19'612.3
2017-Nov-18 11:30N 56°29' E 016°17'612.3
2017-Nov-18 11:00N 56°23' E 016°14'612.5
2017-Nov-18 10:30N 56°17' E 016°11'713.2
2017-Nov-18 10:00N 56°11' E 016°07'713.7
2017-Nov-18 09:30N 56°04' E 016°02'713.8
2017-Nov-18 09:01N 55°58' E 015°58'713.6
2017-Nov-18 08:30N 55°51' E 015°54'713.3
2017-Nov-18 08:00N 55°46' E 015°47'713.6
2017-Nov-18 07:30N 55°42' E 015°37'713.6
2017-Nov-18 07:00N 55°39' E 015°26'713.6
2017-Nov-18 06:30N 55°36' E 015°16'713.5
2017-Nov-18 06:00N 55°33' E 015°05'1013.8
2017-Nov-18 05:18N 55°28' E 014°50'413.7
2017-Nov-18 04:59N 55°26' E 014°43'613.5
2017-Nov-18 04:30N 55°22' E 014°35'713.9
2017-Nov-18 03:59N 55°16' E 014°28'713.8
2017-Nov-18 03:30N 55°11' E 014°20'713.6
2017-Nov-18 03:00N 55°10' E 014°08'2413.7
2017-Nov-18 01:15N 55°12' E 013°26'413.5
2017-Nov-18 01:00N 55°12' E 013°20'913.7
2017-Nov-18 00:22N 55°13' E 013°05'513.5
2017-Nov-18 00:00N 55°13' E 012°56'713.7
2017-Nov-17 23:30N 55°16' E 012°45'611.1
2017-Nov-17 23:00N 55°20' E 012°38'612.1
2017-Nov-17 22:30N 55°26' E 012°40'612.4
2017-Nov-17 22:00N 55°32' E 012°42'5 9.6
2017-Nov-17 21:30N 55°37' E 012°42'612.2
2017-Nov-17 21:00N 55°43' E 012°41'612.8
2017-Nov-17 20:31N 55°49' E 012°41'612.9
2017-Nov-17 20:00N 55°55' E 012°38'713.1
2017-Nov-17 19:31N 56°02' E 012°39'714.0
2017-Nov-17 19:00N 56°07' E 012°31'713.7
2017-Nov-17 18:31N 56°11' E 012°20'  
2017-Nov-15 09:44N 56°11' E 012°03'611.7
2017-Nov-15 09:12N 56°12' E 012°13'212.1
2017-Nov-15 09:00N 56°12' E 012°18'612.2
2017-Nov-15 08:30N 56°09' E 012°28'713.5
2017-Nov-15 08:00N 56°05' E 012°37'612.9
2017-Nov-15 07:31N 55°59' E 012°42'612.6
2017-Nov-15 07:01N 55°53' E 012°45'612.0
2017-Nov-15 06:31N 55°47' E 012°48'612.3
2017-Nov-15 06:01N 55°42' E 012°54'5 9.8
2017-Nov-15 05:31N 55°39' E 013°01'1 1.2
2017-Nov-15 05:00N 55°38' E 013°01'0 0.0
2017-Nov-15 04:30N 55°38' E 013°01'0 0.0
2017-Nov-15 04:00N 55°38' E 013°01'0 0.0
2017-Nov-15 03:30N 55°38' E 013°01'0 0.0
2017-Nov-15 03:00N 55°38' E 013°01'0 0.0
2017-Nov-15 02:30N 55°38' E 013°01'0 0.0
2017-Nov-15 02:00N 55°38' E 013°01'0 0.0
2017-Nov-15 01:30N 55°38' E 013°01'0 0.0
2017-Nov-15 01:00N 55°38' E 013°01'0 0.0
2017-Nov-15 00:30N 55°38' E 013°01'0 0.0
2017-Nov-15 00:00N 55°38' E 013°01'0 0.0
2017-Nov-14 23:30N 55°38' E 013°01'0 0.0
2017-Nov-14 23:00N 55°38' E 013°01'0 0.0
2017-Nov-14 22:27N 55°38' E 013°01'0 0.0
2017-Nov-14 22:00N 55°38' E 013°01'0 0.0
2017-Nov-14 21:27N 55°38' E 013°01'0 0.0
2017-Nov-14 20:58N 55°38' E 013°01'0 0.0
2017-Nov-14 20:28N 55°38' E 013°01'0 0.0
2017-Nov-14 19:58N 55°38' E 013°01'0 0.0
2017-Nov-14 19:25N 55°38' E 013°01'0 0.0
2017-Nov-14 18:55N 55°38' E 013°01'1 2.2
2017-Nov-14 18:30N 55°39' E 013°00'4 7.8
2017-Nov-14 18:00N 55°42' E 012°55'0 0.1
2017-Nov-14 17:29N 55°42' E 012°55'0 0.0
2017-Nov-14 16:59N 55°42' E 012°55'0 0.0
2017-Nov-14 16:29N 55°42' E 012°55'0 0.0
2017-Nov-14 15:59N 55°42' E 012°55'0 0.0
2017-Nov-14 15:29N 55°42' E 012°55'0 0.0
2017-Nov-14 14:59N 55°42' E 012°55'0 0.0
2017-Nov-14 14:29N 55°42' E 012°55'0 0.0
2017-Nov-14 13:59N 55°42' E 012°55'0 0.0
2017-Nov-14 13:29N 55°42' E 012°55'0 0.1
2017-Nov-14 12:59N 55°42' E 012°55'0 0.0
2017-Nov-14 12:29N 55°42' E 012°55'0 0.0
2017-Nov-14 11:59N 55°42' E 012°55'0 0.0
2017-Nov-14 11:29N 55°42' E 012°55'0 0.0
2017-Nov-14 10:59N 55°42' E 012°55'0 0.6
2017-Nov-14 10:30N 55°42' E 012°55'5 9.6
2017-Nov-14 10:00N 55°46' E 012°50'510.2
2017-Nov-14 09:30N 55°50' E 012°44'510.2
2017-Nov-14 09:00N 55°54' E 012°39'5 9.4
2017-Nov-14 08:31N 55°59' E 012°40'510.0
2017-Nov-14 08:00N 56°04' E 012°38'510.3
2017-Nov-14 07:30N 56°07' E 012°31'510.8
2017-Nov-14 07:00N 56°10' E 012°23'611.1
2017-Nov-14 06:30N 56°12' E 012°14'  

Dump ship's entire track history